createdAt,value
2023-04-18T06:04:10.832Z,98532.6
2023-04-18T06:09:45.334Z,98539.9
2023-04-18T06:15:40.678Z,98547.5
2023-04-18T06:21:33.243Z,98551.9
2023-04-18T06:27:32.242Z,98552.9
2023-04-18T06:33:12.072Z,98553.4
2023-04-18T06:39:18.160Z,98550.1
2023-04-18T06:44:56.941Z,98545
2023-04-18T06:50:32.235Z,98546.1
2023-04-18T06:56:12.811Z,98544.5
2023-04-18T07:02:18.331Z,98545.2
2023-04-18T07:07:56.087Z,98542.7
2023-04-18T07:13:31.715Z,98541.1
2023-04-18T07:19:07.635Z,98543.6
2023-04-18T07:24:43.068Z,98540.4
2023-04-18T07:30:19.652Z,98538.6
2023-04-18T07:35:57.412Z,98536.1
2023-04-18T07:41:38.722Z,98534.6
2023-04-18T07:47:14.409Z,98541.3
2023-04-18T07:53:03.231Z,98540.2
2023-04-18T07:58:51.146Z,98542.7
2023-04-18T08:04:50.798Z,98531.2
2023-04-18T08:10:37.622Z,98533.5
2023-04-18T08:16:18.306Z,98534.7
2023-04-18T08:21:56.308Z,98532.1
2023-04-18T08:27:33.222Z,98534.5
2023-04-18T08:33:11.638Z,98530
2023-04-18T08:38:50.613Z,98530.6
2023-04-18T08:44:26.407Z,98531.6
2023-04-18T08:50:02.165Z,98531.4
2023-04-18T08:55:49.052Z,98530.5
2023-04-18T09:02:10.510Z,98529.6
2023-04-18T09:07:44.327Z,98529.5
2023-04-18T09:13:19.769Z,98521
2023-04-18T09:19:15.542Z,98526.5
2023-04-18T09:25:09.690Z,98519.7
2023-04-18T09:31:32.085Z,98514.6
2023-04-18T09:37:18.368Z,98519.2
2023-04-18T09:42:54.781Z,98516.6
2023-04-18T09:48:53.093Z,98511.9
2023-04-18T09:54:29.975Z,98504.2
2023-04-18T10:00:05.728Z,98499.7
2023-04-18T10:05:42.936Z,98495.8
2023-04-18T10:11:21.904Z,98493.2
2023-04-18T10:17:03.517Z,98487.9
2023-04-18T10:22:39.783Z,98487
2023-04-18T10:28:16.396Z,98478.6
2023-04-18T10:34:06.313Z,98471.7
2023-04-18T10:39:54.911Z,98462.9
2023-04-18T10:45:50.209Z,98465
2023-04-18T10:52:08.506Z,98460
2023-04-18T10:57:44.858Z,98452.6
2023-04-18T11:03:21.423Z,98443.6
2023-04-18T11:09:00.577Z,98440.9
2023-04-18T11:14:37.040Z,98438.3
2023-04-18T11:20:13.887Z,98432.3
2023-04-18T11:25:50.433Z,98426.8
2023-04-18T11:31:31.695Z,98418.8
2023-04-18T11:37:21.724Z,98413.1
2023-04-18T11:43:33.851Z,98403
2023-04-18T11:49:09.987Z,98398.7
2023-04-18T11:55:04.961Z,98392.9
2023-04-18T12:00:46.672Z,98390.8
2023-04-18T12:07:10.718Z,98386.1
2023-04-18T12:13:16.837Z,98383.7
2023-04-18T12:19:18.464Z,98380
2023-04-18T12:24:53.982Z,98372.7
2023-04-18T12:30:30.613Z,98361.9
2023-04-18T12:36:26.960Z,98353.5
2023-04-18T12:42:02.797Z,98351
2023-04-18T12:47:40.697Z,98350.1
2023-04-18T12:53:19.718Z,98343
2023-04-18T12:59:12.976Z,98340.2
2023-04-18T13:04:50.802Z,98338.5
2023-04-18T13:10:27.939Z,98338
2023-04-18T13:16:09.284Z,98334.9
2023-04-18T13:21:58.048Z,98332.2
2023-04-18T13:27:42.137Z,98331.4
2023-04-18T13:33:21.905Z,98333.4
2023-04-18T13:38:58.561Z,98321.2
2023-04-18T13:44:34.337Z,98318.5
2023-04-18T13:50:12.922Z,98313.6
2023-04-18T13:55:48.833Z,98308.3
2023-04-18T14:01:24.430Z,98303.6
2023-04-18T14:07:00.546Z,98299.1
2023-04-18T14:12:40.452Z,98296.5
2023-04-18T14:18:55.373Z,98293.9
2023-04-18T14:24:41.002Z,98290
2023-04-18T14:30:23.519Z,98292.6
2023-04-18T14:36:05.121Z,98284.5
2023-04-18T14:41:41.251Z,98288.6
2023-04-18T14:48:14.677Z,98286.9
2023-04-18T14:54:06.810Z,98288.5
2023-04-18T14:59:41.991Z,98280.9
2023-04-18T15:05:17.421Z,98278.6
2023-04-18T15:10:52.695Z,98280.2
2023-04-18T15:16:47.807Z,98281.4
2023-04-18T15:22:33.007Z,98273.3
2023-04-18T15:28:16.135Z,98271.6
2023-04-18T15:33:51.958Z,98271.3
2023-04-18T15:39:46.934Z,98269
2023-04-18T15:45:30.441Z,98265.7
2023-04-18T15:51:25.208Z,98262.2
2023-04-18T15:57:30.699Z,98263.6
2023-04-18T16:03:29.104Z,98266.9
2023-04-18T16:09:41.839Z,98269.6
2023-04-18T16:15:48.154Z,98271.2
2023-04-18T16:21:28.216Z,98274.8
2023-04-18T16:27:06.874Z,98271.5
2023-04-18T16:32:45.413Z,98274
2023-04-18T16:38:23.573Z,98278
2023-04-18T16:44:37.285Z,98273.7
2023-04-18T16:50:12.817Z,98277.8
2023-04-18T16:56:07.797Z,98280.5
2023-04-18T17:01:52.586Z,98276.7
2023-04-18T17:07:29.199Z,98280.1
2023-04-18T17:13:17.256Z,98273.9
2023-04-18T17:18:54.882Z,98274.9
2023-04-18T17:24:30.185Z,98274.5
2023-04-18T17:30:08.197Z,98281
2023-04-18T17:36:08.216Z,98282.5
2023-04-18T17:41:47.037Z,98283.1
2023-04-18T17:47:26.226Z,98278.2
2023-04-18T17:53:06.335Z,98276.4
2023-04-18T17:58:45.733Z,98279.1
2023-04-18T18:04:28.336Z,98279
2023-04-18T18:10:05.982Z,98289
2023-04-18T18:15:42.097Z,98287.4
2023-04-18T18:21:20.815Z,98292.2
2023-04-18T18:26:57.436Z,98295.8
2023-04-18T18:32:43.553Z,98291.8
2023-04-18T18:38:26.584Z,98292.6
2023-04-18T18:44:07.153Z,98296.2
2023-04-18T18:49:43.312Z,98299.5
2023-04-18T18:55:33.624Z,98305.2
2023-04-18T19:01:31.504Z,98310.2
2023-04-18T19:07:05.117Z,98306.1
2023-04-18T19:12:44.740Z,98311.4
2023-04-18T19:18:25.771Z,98312.2
2023-04-18T19:24:00.946Z,98318.7
2023-04-18T19:29:36.667Z,98325.2
2023-04-18T19:35:12.770Z,98331.1
2023-04-18T19:40:54.144Z,98336.1
2023-04-18T19:46:40.388Z,98340.4
2023-04-18T19:52:23.754Z,98347.4
2023-04-18T19:58:04.825Z,98350.5
2023-04-18T20:04:03.529Z,98354.4
2023-04-18T20:09:43.235Z,98356.4
2023-04-18T20:15:31.546Z,98360.7
2023-04-18T20:21:10.917Z,98366.7
2023-04-18T20:26:46.937Z,98374
2023-04-18T20:32:23.342Z,98379.9
2023-04-18T20:37:58.614Z,98380.2
2023-04-18T20:43:34.900Z,98378.6
2023-04-18T20:49:11.249Z,98377.5
2023-04-18T20:56:21.023Z,98374.2
2023-04-18T21:02:28.711Z,98369.9
2023-04-18T21:08:03.099Z,98375.5
2023-04-18T21:13:38.058Z,98373.8
